Time;durP1;ratioP1;P1;durP2;ratioP2;P2;SDS_P1;SDS_P2;PMS_P1;PMS_P2;Temp;Humidity;BMP_temperature;BMP_pressure;BME280_temperature;BME280_humidity;BME280_pressure;Samples;Min_cycle;Max_cycle;Signal;HPM_P1;HPM_P2
2023/10/29 00:01:52;;;;;;;;;;;;;;;7.72;100.00;99264.75;4992203;28;19921;-85
2023/10/29 00:04:20;;;;;;;;;;;;;;;7.66;100.00;99262.13;4975063;28;19922;-86
2023/10/29 00:06:48;;;;;;;;;;;;;;;7.68;100.00;99261.84;4975325;28;19922;-86
2023/10/29 00:09:17;;;;;;;;;;;;;;;7.66;100.00;99262.13;4986436;28;19922;-86
2023/10/29 00:11:46;;;;;;;;;;;;;;;7.63;100.00;99262.69;4991786;28;19926;-85
2023/10/29 00:14:19;;;;;;;;;;;;;;;7.63;100.00;99254.56;4988734;28;20370;-85
2023/10/29 00:16:48;;;;;;;;;;;;;;;7.68;100.00;99252.88;4986762;28;20376;-88
2023/10/29 00:19:16;;;;;;;;;;;;;;;7.66;100.00;99256.72;4991677;28;20279;-86
2023/10/29 00:21:44;;;;;;;;;;;;;;;7.65;100.00;99255.09;4988563;28;20302;-87
2023/10/29 00:24:12;;;;;;;;;;;;;;;7.66;100.00;99247.78;4993808;28;19922;-87
2023/10/29 00:26:40;;;;;;;;;;;;;;;7.63;100.00;99241.03;4990202;28;19928;-86
2023/10/29 00:29:09;;;;;;;;;;;;;;;7.61;100.00;99245.13;4995529;28;19929;-86
2023/10/29 00:31:37;;;;;;;;;;;;;;;7.58;100.00;99243.03;4991968;28;20290;-86
2023/10/29 00:34:05;;;;;;;;;;;;;;;7.63;100.00;99227.50;4994428;28;19921;-86
2023/10/29 00:36:33;;;;;;;;;;;;;;;7.63;100.00;99224.78;4994744;28;19922;-85
2023/10/29 00:39:07;;;;;;;;;;;;;;;7.65;100.00;99227.19;4991909;28;19922;-85
2023/10/29 00:41:35;;;;;;;;;;;;;;;7.63;100.00;99224.00;4983713;28;19922;-85
2023/10/29 00:44:10;;;;;;;;;;;;;;;7.64;100.00;99215.59;4969458;28;19945;-85
2023/10/29 00:46:39;;;;;;;;;;;;;;;7.69;100.00;99209.25;4987474;28;19928;-86
2023/10/29 00:49:07;;;;;;;;;;;;;;;7.66;100.00;99199.84;4986684;28;19930;-86
2023/10/29 00:51:35;;;;;;;;;;;;;;;7.70;100.00;99196.53;4990930;28;20310;-86
2023/10/29 00:54:03;;;;;;;;;;;;;;;7.65;100.00;99183.88;4991000;28;19922;-86
2023/10/29 00:56:36;;;;;;;;;;;;;;;7.65;100.00;99167.63;4997415;28;19945;-87
2023/10/29 00:59:11;;;;;;;;;;;;;;;7.66;100.00;99169.25;4987299;28;20392;-87
2023/10/29 01:01:39;;;;;;;;;;;;;;;7.66;100.00;99174.66;4990698;28;19925;-86
2023/10/29 01:04:12;;;;;;;;;;;;;;;7.70;100.00;99162.13;4971421;28;19976;-86
2023/10/29 01:06:47;;;;;;;;;;;;;;;7.71;100.00;99152.13;4966876;28;19925;-86
2023/10/29 01:09:15;;;;;;;;;;;;;;;7.70;100.00;99151.31;4992809;28;19932;-85
2023/10/29 01:11:49;;;;;;;;;;;;;;;7.74;100.00;99167.78;4994127;28;19929;-85
2023/10/29 01:14:18;;;;;;;;;;;;;;;7.75;100.00;99175.59;4995081;28;19922;-86
2023/10/29 01:16:53;;;;;;;;;;;;;;;7.74;100.00;99181.31;4995310;28;19922;-86
2023/10/29 01:19:20;;;;;;;;;;;;;;;7.74;100.00;99162.34;4993886;28;20000;-85
2023/10/29 01:21:49;;;;;;;;;;;;;;;7.74;100.00;99154.25;4983975;28;19922;-85
2023/10/29 01:24:17;;;;;;;;;;;;;;;7.73;100.00;99149.91;4980597;28;19921;-86
2023/10/29 01:26:44;;;;;;;;;;;;;;;7.72;100.00;99159.94;4991250;28;20781;-86
2023/10/29 01:29:12;;;;;;;;;;;;;;;7.75;100.00;99172.88;4997991;28;19929;-85
2023/10/29 01:31:42;;;;;;;;;;;;;;;7.74;100.00;99159.66;4994463;28;19921;-86
2023/10/29 01:34:14;;;;;;;;;;;;;;;7.73;100.00;99153.41;4992880;28;19921;-87
2023/10/29 01:36:42;;;;;;;;;;;;;;;7.79;100.00;99148.72;4993067;28;20293;-86
2023/10/29 01:39:15;;;;;;;;;;;;;;;7.77;100.00;99148.22;4987234;28;19930;-85
2023/10/29 01:41:55;;;;;;;;;;;;;;;7.80;100.00;99147.63;4991443;28;19925;-86
2023/10/29 01:44:23;;;;;;;;;;;;;;;7.81;100.00;99138.41;4990543;28;19926;-87
2023/10/29 01:46:52;;;;;;;;;;;;;;;7.83;100.00;99138.91;4991978;28;19929;-86
2023/10/29 01:49:20;;;;;;;;;;;;;;;7.80;100.00;99134.06;4990281;28;19929;-86
2023/10/29 01:51:54;;;;;;;;;;;;;;;7.81;100.00;99143.81;4992967;28;19926;-87
2023/10/29 01:54:22;;;;;;;;;;;;;;;7.80;100.00;99136.78;4993262;28;20667;-85
2023/10/29 01:56:50;;;;;;;;;;;;;;;7.87;100.00;99139.09;4993030;28;20302;-86
2023/10/29 01:59:22;;;;;;;;;;;;;;;7.82;100.00;99135.38;4992746;28;19945;-85
2023/10/29 02:01:57;;;;;;;;;;;;;;;7.86;100.00;99134.78;4993028;28;19926;-85
2023/10/29 02:04:26;;;;;;;;;;;;;;;7.85;100.00;99136.69;4992964;28;20337;-85
2023/10/29 02:06:59;;;;;;;;;;;;;;;7.85;100.00;99127.78;4986139;28;19922;-84
2023/10/29 02:09:32;;;;;;;;;;;;;;;7.85;100.00;99130.47;4982990;28;20035;-83
2023/10/29 02:12:01;;;;;;;;;;;;;;;7.83;100.00;99126.16;4992767;28;19930;-84
2023/10/29 02:14:30;;;;;;;;;;;;;;;7.82;100.00;99121.84;4993036;28;19932;-84
2023/10/29 02:16:59;;;;;;;;;;;;;;;7.82;100.00;99115.63;4992913;28;19944;-85
2023/10/29 02:19:27;;;;;;;;;;;;;;;7.82;100.00;99116.44;4973886;28;19922;-84
2023/10/29 02:21:57;;;;;;;;;;;;;;;7.79;100.00;99117.03;4995050;28;19925;-84
2023/10/29 02:24:25;;;;;;;;;;;;;;;7.81;100.00;99119.44;4993327;28;19929;-83
2023/10/29 02:26:58;;;;;;;;;;;;;;;7.82;100.00;99115.63;4989122;28;19922;-85
2023/10/29 02:29:26;;;;;;;;;;;;;;;7.78;100.00;99104.59;4977672;28;19925;-84
2023/10/29 02:31:54;;;;;;;;;;;;;;;7.79;100.00;99103.50;4987607;28;19922;-83
2023/10/29 02:34:22;;;;;;;;;;;;;;;7.81;100.00;99103.19;4991994;28;19933;-83
2023/10/29 02:36:50;;;;;;;;;;;;;;;7.80;100.00;99099.69;4993846;28;19929;-84
2023/10/29 02:39:19;;;;;;;;;;;;;;;7.81;100.00;99082.31;5011901;28;19921;-83
2023/10/29 02:41:47;;;;;;;;;;;;;;;7.83;100.00;99071.19;4966663;28;19921;-84
2023/10/29 02:44:15;;;;;;;;;;;;;;;7.81;100.00;99073.41;4993448;28;19929;-84
2023/10/29 02:46:48;;;;;;;;;;;;;;;7.87;100.00;99064.09;4982668;28;19922;-84
2023/10/29 02:49:21;;;;;;;;;;;;;;;7.84;100.00;99053.81;4993021;28;19921;-84
2023/10/29 02:51:49;;;;;;;;;;;;;;;7.84;100.00;99053.81;4994236;28;19922;-84
2023/10/29 02:54:16;;;;;;;;;;;;;;;7.86;100.00;99058.94;4992065;28;19929;-83
2023/10/29 02:56:46;;;;;;;;;;;;;;;7.89;100.00;99047.53;4991837;28;19921;-84
2023/10/29 02:59:14;;;;;;;;;;;;;;;7.90;100.00;99049.94;4991569;28;19922;-83
2023/10/29 03:01:42;;;;;;;;;;;;;;;7.91;100.00;99023.63;4992505;28;19921;-83
2023/10/29 03:04:14;;;;;;;;;;;;;;;7.93;100.00;99019.53;4991129;28;19922;-83
2023/10/29 03:06:42;;;;;;;;;;;;;;;7.90;100.00;99022.84;4987150;28;19922;-84
2023/10/29 03:09:11;;;;;;;;;;;;;;;7.90;100.00;99013.91;4991985;28;19922;-85
2023/10/29 03:11:39;;;;;;;;;;;;;;;7.91;100.00;99008.19;4993376;28;19922;-83
2023/10/29 03:14:13;;;;;;;;;;;;;;;7.94;100.00;99004.06;4990555;28;19929;-84
2023/10/29 03:16:41;;;;;;;;;;;;;;;7.93;100.00;98999.78;4990600;28;19922;-84
2023/10/29 03:19:14;;;;;;;;;;;;;;;7.93;100.00;98994.34;4973016;28;19922;-84
2023/10/29 03:21:49;;;;;;;;;;;;;;;7.94;100.00;98988.63;4969164;28;20313;-84
2023/10/29 03:24:17;;;;;;;;;;;;;;;7.95;100.00;98973.16;5001331;28;20412;-85
2023/10/29 03:26:45;;;;;;;;;;;;;;;7.95;100.00;98967.75;4990046;28;19921;-85
2023/10/29 03:29:14;;;;;;;;;;;;;;;7.98;100.00;98981.50;4995670;28;20510;-85
2023/10/29 03:31:47;;;;;;;;;;;;;;;8.00;100.00;98976.56;4986668;28;20394;-83
2023/10/29 03:34:20;;;;;;;;;;;;;;;8.03;100.00;98966.25;4991608;28;19921;-84
2023/10/29 03:36:53;;;;;;;;;;;;;;;8.05;100.00;98966.72;4989966;28;19933;-85
2023/10/29 03:39:26;;;;;;;;;;;;;;;8.09;100.00;98965.00;4980229;28;20628;-84
2023/10/29 03:41:59;;;;;;;;;;;;;;;8.10;100.00;98953.06;4988766;28;19949;-85
2023/10/29 03:44:28;;;;;;;;;;;;;;;8.13;100.00;98942.44;4984805;28;19922;-83
2023/10/29 03:47:01;;;;;;;;;;;;;;;8.13;100.00;98952.44;4979797;28;19929;-82
2023/10/29 03:49:34;;;;;;;;;;;;;;;8.13;100.00;98941.63;4981081;28;19944;-84
2023/10/29 03:52:07;;;;;;;;;;;;;;;8.12;100.00;98929.97;4993240;28;19922;-84
2023/10/29 03:54:35;;;;;;;;;;;;;;;8.14;100.00;98919.63;4991757;28;19928;-84
2023/10/29 03:57:03;;;;;;;;;;;;;;;8.13;100.00;98911.81;4992013;28;19929;-84
2023/10/29 03:59:37;;;;;;;;;;;;;;;8.15;100.00;98906.91;4985793;28;19929;-86
2023/10/29 04:02:10;;;;;;;;;;;;;;;8.17;100.00;98905.50;4997194;28;19937;-84
2023/10/29 04:04:40;;;;;;;;;;;;;;;8.20;100.00;98885.06;4989690;28;19921;-86
2023/10/29 04:07:08;;;;;;;;;;;;;;;8.26;100.00;98888.47;4995156;28;19933;-85
2023/10/29 04:09:41;;;;;;;;;;;;;;;8.29;100.00;98890.56;4996471;28;20290;-86
2023/10/29 04:12:09;;;;;;;;;;;;;;;8.34;100.00;98880.41;4987950;28;19944;-86
2023/10/29 04:14:42;;;;;;;;;;;;;;;8.34;100.00;98879.59;4988588;28;19932;-84
2023/10/29 04:17:10;;;;;;;;;;;;;;;8.37;100.00;98870.84;4975780;28;19929;-85
2023/10/29 04:19:43;;;;;;;;;;;;;;;8.36;100.00;98858.41;4986436;28;19922;-83
2023/10/29 04:22:11;;;;;;;;;;;;;;;8.39;100.00;98848.88;4959130;28;19922;-83
2023/10/29 04:24:39;;;;;;;;;;;;;;;8.40;100.00;98839.63;4989037;28;19926;-85
2023/10/29 04:27:07;;;;;;;;;;;;;;;8.41;100.00;98844.75;4994103;28;19922;-85
2023/10/29 04:29:42;;;;;;;;;;;;;;;8.42;100.00;98842.81;4995544;28;19921;-84
2023/10/29 04:32:10;;;;;;;;;;;;;;;8.46;100.00;98835.69;5009185;28;19921;-86
2023/10/29 04:34:43;;;;;;;;;;;;;;;8.45;100.00;98855.78;4996397;28;19929;-83
2023/10/29 04:37:11;;;;;;;;;;;;;;;8.47;100.00;98845.44;4994298;28;19929;-85
2023/10/29 04:39:39;;;;;;;;;;;;;;;8.50;100.00;98845.59;4998551;28;19926;-86
2023/10/29 04:42:07;;;;;;;;;;;;;;;8.51;100.00;98838.28;4990458;28;19922;-84
2023/10/29 04:44:35;;;;;;;;;;;;;;;8.54;100.00;98840.38;4971476;28;19929;-84
2023/10/29 04:47:05;;;;;;;;;;;;;;;8.55;100.00;98838.44;4993705;28;19922;-83
2023/10/29 04:49:33;;;;;;;;;;;;;;;8.56;100.00;98830.03;4994575;28;19929;-83
2023/10/29 04:52:06;;;;;;;;;;;;;;;8.58;100.00;98835.91;4994077;28;20298;-85
2023/10/29 04:54:34;;;;;;;;;;;;;;;8.55;100.00;98811.31;4992434;28;19922;-86
2023/10/29 04:57:02;;;;;;;;;;;;;;;8.58;100.00;98806.09;4979941;28;19933;-86
2023/10/29 04:59:36;;;;;;;;;;;;;;;8.60;100.00;98808.50;4994093;28;20294;-84
2023/10/29 05:02:11;;;;;;;;;;;;;;;8.62;100.00;98809.78;4987040;28;19926;-85
2023/10/29 05:04:39;;;;;;;;;;;;;;;8.65;100.00;98805.66;4978186;28;20325;-84
2023/10/29 05:07:12;;;;;;;;;;;;;;;8.65;100.00;98795.59;4994438;28;20408;-85
2023/10/29 05:09:45;;;;;;;;;;;;;;;8.64;100.00;98804.03;4995137;28;20409;-85
2023/10/29 05:12:13;;;;;;;;;;;;;;;8.70;100.00;98812.84;4988855;28;20290;-84
2023/10/29 05:14:40;;;;;;;;;;;;;;;8.67;100.00;98795.28;4993007;28;19928;-85
2023/10/29 05:17:08;;;;;;;;;;;;;;;8.71;100.00;98798.94;4994216;28;19922;-85
2023/10/29 05:19:39;;;;;;;;;;;;;;;8.73;100.00;98806.78;5003399;28;20286;-83
2023/10/29 05:22:06;;;;;;;;;;;;;;;8.75;100.00;98799.13;4990264;28;19922;-86
2023/10/29 05:24:34;;;;;;;;;;;;;;;8.73;100.00;98785.06;5002186;28;19929;-85
2023/10/29 05:27:03;;;;;;;;;;;;;;;8.80;100.00;98780.03;4980066;28;19921;-85
2023/10/29 05:29:32;;;;;;;;;;;;;;;8.75;100.00;98772.03;4986048;28;19929;-86
2023/10/29 05:32:00;;;;;;;;;;;;;;;8.76;100.00;98766.28;4992450;28;20637;-86
2023/10/29 05:34:33;;;;;;;;;;;;;;;8.79;100.00;98762.94;4991430;28;19938;-85
2023/10/29 05:37:03;;;;;;;;;;;;;;;8.77;100.00;98748.91;4980737;28;19922;-86
2023/10/29 05:39:30;;;;;;;;;;;;;;;8.78;100.00;98755.09;4991491;28;19929;-85
2023/10/29 05:41:58;;;;;;;;;;;;;;;8.79;100.00;98743.94;4993183;28;19957;-86
2023/10/29 05:44:26;;;;;;;;;;;;;;;8.80;100.00;98745.53;4994650;28;19922;-82
2023/10/29 05:46:54;;;;;;;;;;;;;;;8.82;100.00;98747.94;4969179;28;19929;-85
2023/10/29 05:49:27;;;;;;;;;;;;;;;8.83;100.00;98738.69;4988791;28;20375;-83
2023/10/29 05:51:55;;;;;;;;;;;;;;;8.84;100.00;98735.66;4996099;28;19928;-84
2023/10/29 05:54:24;;;;;;;;;;;;;;;8.84;100.00;98741.09;4991497;28;19925;-85
2023/10/29 05:56:52;;;;;;;;;;;;;;;8.86;100.00;98746.19;4967436;28;19922;-84
2023/10/29 05:59:20;;;;;;;;;;;;;;;8.90;100.00;98740.94;4992160;28;20370;-85
2023/10/29 06:01:48;;;;;;;;;;;;;;;8.92;100.00;98747.66;4995840;28;20674;-87
2023/10/29 06:04:16;;;;;;;;;;;;;;;8.91;100.00;98756.91;4987783;28;19945;-85
2023/10/29 06:06:44;;;;;;;;;;;;;;;8.97;100.00;98754.84;4991096;28;19933;-85
2023/10/29 06:09:12;;;;;;;;;;;;;;;8.94;100.00;98750.84;4993445;28;19921;-85
2023/10/29 06:11:42;;;;;;;;;;;;;;;8.96;100.00;98759.47;4989089;28;19929;-84
2023/10/29 06:14:15;;;;;;;;;;;;;;;8.97;100.00;98757.56;4992301;28;19921;-85
2023/10/29 06:16:43;;;;;;;;;;;;;;;9.02;100.00;98762.84;4994119;28;19932;-85
2023/10/29 06:19:11;;;;;;;;;;;;;;;9.01;100.00;98759.31;4992024;28;20041;-86
2023/10/29 06:21:44;;;;;;;;;;;;;;;8.98;100.00;98757.22;4975488;28;19921;-83
2023/10/29 06:24:17;;;;;;;;;;;;;;;9.03;100.00;98748.13;4996639;28;19928;-85
2023/10/29 06:26:51;;;;;;;;;;;;;;;9.04;100.00;98751.66;4990061;28;19930;-85
2023/10/29 06:29:19;;;;;;;;;;;;;;;9.06;100.00;98761.09;4989984;28;20370;-84
2023/10/29 06:31:47;;;;;;;;;;;;;;;9.10;100.00;98755.81;4989415;28;19944;-84
2023/10/29 06:34:15;;;;;;;;;;;;;;;9.09;100.00;98755.03;4991472;28;19929;-83
2023/10/29 06:36:42;;;;;;;;;;;;;;;9.13;100.00;98758.69;4994206;28;19922;-83
2023/10/29 06:39:16;;;;;;;;;;;;;;;9.13;100.00;98752.47;4994045;28;19922;-82
2023/10/29 06:41:51;;;;;;;;;;;;;;;9.17;100.00;98748.03;4989810;28;20297;-83
2023/10/29 06:44:19;;;;;;;;;;;;;;;9.15;100.00;98750.22;4974359;28;19930;-86
2023/10/29 06:46:52;;;;;;;;;;;;;;;9.19;100.00;98745.78;4989413;28;19929;-83
2023/10/29 06:49:25;;;;;;;;;;;;;;;9.24;100.00;98747.53;4995057;28;19929;-84
2023/10/29 06:51:53;;;;;;;;;;;;;;;9.24;100.00;98742.91;4998999;28;19925;-84
2023/10/29 06:54:21;;;;;;;;;;;;;;;9.25;100.00;98752.63;4992591;28;19925;-83
2023/10/29 06:56:50;;;;;;;;;;;;;;;9.29;100.00;98748.16;4993250;28;19933;-83
2023/10/29 06:59:18;;;;;;;;;;;;;;;9.32;100.00;98739.41;4986586;28;20645;-83
2023/10/29 07:01:47;;;;;;;;;;;;;;;9.30;100.00;98749.75;4976648;28;19922;-84
2023/10/29 07:04:14;;;;;;;;;;;;;;;9.31;100.00;98740.50;4994359;28;19929;-83
2023/10/29 07:06:44;;;;;;;;;;;;;;;9.32;100.00;98742.13;4991683;28;20294;-84
2023/10/29 07:09:17;;;;;;;;;;;;;;;9.34;100.00;98734.44;4992902;28;19922;-84
2023/10/29 07:11:45;;;;;;;;;;;;;;;9.37;100.00;98738.44;4998266;28;19921;-84
2023/10/29 07:14:19;;;;;;;;;;;;;;;9.41;100.00;98747.53;4991417;28;19922;-83
2023/10/29 07:16:48;;;;;;;;;;;;;;;9.40;100.00;98748.66;4995804;28;19930;-85
2023/10/29 07:19:20;;;;;;;;;;;;;;;9.43;100.00;98737.16;4990368;28;19925;-84
2023/10/29 07:21:53;;;;;;;;;;;;;;;9.48;100.00;98745.13;4989040;28;19926;-83
2023/10/29 07:24:21;;;;;;;;;;;;;;;9.54;100.00;98743.06;5000038;28;19929;-84
2023/10/29 07:26:49;;;;;;;;;;;;;;;9.54;100.00;98743.06;4994490;28;19926;-84
2023/10/29 07:29:23;;;;;;;;;;;;;;;9.59;100.00;98725.81;5003423;28;20374;-83
2023/10/29 07:31:51;;;;;;;;;;;;;;;9.61;100.00;98723.56;4995860;28;19929;-83
2023/10/29 07:34:24;;;;;;;;;;;;;;;9.63;100.00;98729.50;4998562;28;20321;-83
2023/10/29 07:36:57;;;;;;;;;;;;;;;9.64;100.00;98736.50;4999073;28;19929;-83
2023/10/29 07:39:30;;;;;;;;;;;;;;;9.63;100.00;98729.50;5000423;28;19933;-84
2023/10/29 07:42:03;;;;;;;;;;;;;;;9.69;100.00;98733.63;4996004;28;19928;-83
2023/10/29 07:44:38;;;;;;;;;;;;;;;9.72;100.00;98732.97;5002130;28;19929;-85
2023/10/29 07:47:08;;;;;;;;;;;;;;;9.73;100.00;98725.63;5004777;28;19922;-83
2023/10/29 07:49:37;;;;;;;;;;;;;;;9.76;100.00;98738.56;4996480;28;19921;-84
2023/10/29 07:52:05;;;;;;;;;;;;;;;9.80;100.00;98753.91;4994470;28;20370;-85
2023/10/29 07:54:38;;;;;;;;;;;;;;;9.84;100.00;98746.69;4995573;28;19926;-85
2023/10/29 07:57:06;;;;;;;;;;;;;;;9.83;100.00;98755.16;4996337;28;19922;-84
2023/10/29 07:59:34;;;;;;;;;;;;;;;9.88;100.00;98746.84;4996059;28;19921;-83
2023/10/29 08:02:04;;;;;;;;;;;;;;;9.86;100.00;98736.31;4997885;28;19922;-84
2023/10/29 08:04:32;;;;;;;;;;;;;;;9.91;100.00;98729.13;4997732;28;19925;-84
2023/10/29 08:07:00;;;;;;;;;;;;;;;9.92;100.00;98728.78;4998011;28;19929;-84
2023/10/29 08:09:28;;;;;;;;;;;;;;;9.93;100.00;98741.25;5003969;28;20302;-84
2023/10/29 08:11:56;;;;;;;;;;;;;;;9.94;100.00;98733.91;4980639;28;19922;-83
2023/10/29 08:14:23;;;;;;;;;;;;;;;9.95;100.00;98722.69;4979636;28;19922;-84
2023/10/29 08:16:51;;;;;;;;;;;;;;;10.00;100.00;98738.84;5002384;28;19926;-84
2023/10/29 08:19:21;;;;;;;;;;;;;;;10.01;100.00;98737.72;4994728;28;19921;-84
2023/10/29 08:21:49;;;;;;;;;;;;;;;10.03;100.00;98737.41;4996310;28;19932;-84
2023/10/29 08:24:17;;;;;;;;;;;;;;;10.04;100.00;98730.84;5003268;28;19922;-85
2023/10/29 08:26:45;;;;;;;;;;;;;;;10.05;100.00;98727.00;5000666;28;19928;-84
2023/10/29 08:29:17;;;;;;;;;;;;;;;10.09;100.00;98729.88;5001962;28;19945;-84
2023/10/29 08:31:50;;;;;;;;;;;;;;;10.16;100.00;98727.44;4987853;28;20393;-84
2023/10/29 08:34:18;;;;;;;;;;;;;;;10.16;100.00;98725.53;5005859;28;19921;-84
2023/10/29 08:36:48;;;;;;;;;;;;;;;10.21;100.00;98736.22;4998684;28;19922;-84
2023/10/29 08:39:16;;;;;;;;;;;;;;;10.31;100.00;98731.56;4988613;28;20397;-84
2023/10/29 08:41:43;;;;;;;;;;;;;;;10.30;100.00;98729.94;4996030;28;19921;-84
2023/10/29 08:44:11;;;;;;;;;;;;;;;10.28;100.00;98726.78;5001705;28;19932;-81
2023/10/29 08:46:41;;;;;;;;;;;;;;;10.35;100.00;98732.53;4999273;28;19929;-82
2023/10/29 08:49:09;;;;;;;;;;;;;;;10.32;100.00;98733.94;4996307;28;19922;-82
2023/10/29 08:51:37;;;;;;;;;;;;;;;10.31;100.00;98737.00;4994242;28;19926;-84
2023/10/29 08:54:08;;;;;;;;;;;;;;;10.31;100.00;98748.66;4999937;28;20395;-83
2023/10/29 08:56:36;;;;;;;;;;;;;;;10.31;100.00;98747.88;4995199;28;20888;-81
2023/10/29 08:59:04;;;;;;;;;;;;;;;10.31;100.00;98750.59;4991408;28;19929;-81
2023/10/29 09:01:37;;;;;;;;;;;;;;;10.35;100.00;98749.63;4989136;28;19921;-82
2023/10/29 09:04:08;;;;;;;;;;;;;;;10.41;100.00;98750.25;4994641;28;20302;-83
2023/10/29 09:06:37;;;;;;;;;;;;;;;10.46;100.00;98747.34;4998409;28;19922;-84
2023/10/29 09:09:07;;;;;;;;;;;;;;;10.53;100.00;98742.19;4994342;28;19928;-84
2023/10/29 09:11:43;;;;;;;;;;;;;;;10.59;100.00;98750.97;4997374;28;19921;-85
2023/10/29 09:14:13;;;;;;;;;;;;;;;10.57;100.00;98747.78;4996222;28;19921;-83
2023/10/29 09:16:47;;;;;;;;;;;;;;;10.62;100.00;98750.34;4993860;28;19945;-82
2023/10/29 09:19:20;;;;;;;;;;;;;;;10.53;100.00;98753.06;4974456;28;19922;-83
2023/10/29 09:21:48;;;;;;;;;;;;;;;10.55;100.00;98750.06;4997910;28;19921;-82
2023/10/29 09:24:23;;;;;;;;;;;;;;;10.63;100.00;98745.69;4994813;28;19922;-81
2023/10/29 09:26:51;;;;;;;;;;;;;;;10.72;100.00;98738.28;4999591;28;19949;-83
2023/10/29 09:29:24;;;;;;;;;;;;;;;10.79;100.00;98744.00;4994643;28;19926;-85
2023/10/29 09:31:53;;;;;;;;;;;;;;;10.89;100.00;98730.00;4992101;28;19929;-83
2023/10/29 09:34:21;;;;;;;;;;;;;;;10.97;100.00;98758.31;4996414;28;19929;-82
2023/10/29 09:36:49;;;;;;;;;;;;;;;11.08;100.00;98753.28;4984401;28;19928;-82
2023/10/29 09:39:17;;;;;;;;;;;;;;;11.21;100.00;98763.13;4994575;28;19921;-84
2023/10/29 09:41:47;;;;;;;;;;;;;;;11.31;100.00;98769.28;4977032;28;19928;-84
2023/10/29 09:44:17;;;;;;;;;;;;;;;11.39;100.00;98777.41;5007048;28;19944;-84
2023/10/29 09:46:46;;;;;;;;;;;;;;;11.52;100.00;98763.84;4929062;28;19929;-86
2023/10/29 09:49:14;;;;;;;;;;;;;;;11.60;100.00;98792.13;4985737;28;20019;-81
2023/10/29 09:51:48;;;;;;;;;;;;;;;11.70;100.00;98776.19;4973820;28;19928;-88
2023/10/29 09:54:16;;;;;;;;;;;;;;;11.77;100.00;98775.66;4973484;28;19928;-86
2023/10/29 09:56:44;;;;;;;;;;;;;;;11.82;100.00;98774.63;4950361;28;19929;-87
2023/10/29 09:59:13;;;;;;;;;;;;;;;11.81;100.00;98773.84;4973791;28;19937;-83
2023/10/29 10:01:46;;;;;;;;;;;;;;;11.89;100.00;98777.59;4974944;28;19928;-84
2023/10/29 10:04:19;;;;;;;;;;;;;;;11.93;100.00;98761.38;4975673;28;19930;-83
2023/10/29 10:06:48;;;;;;;;;;;;;;;12.02;100.00;98762.13;4971568;28;19929;-89
2023/10/29 10:09:16;;;;;;;;;;;;;;;11.99;100.00;98765.53;4970674;28;19930;-85
2023/10/29 10:11:44;;;;;;;;;;;;;;;12.00;100.00;98767.13;4973452;28;19937;-87
2023/10/29 10:14:26;;;;;;;;;;;;;;;12.03;100.00;98767.25;4970089;28;20396;-87
2023/10/29 10:17:09;;;;;;;;;;;;;;;12.10;100.00;98782.25;4970112;28;20607;-83
2023/10/29 10:19:38;;;;;;;;;;;;;;;12.21;100.00;98786.16;4970082;28;19930;-83
2023/10/29 10:22:05;;;;;;;;;;;;;;;12.34;100.00;98779.59;4975124;28;19929;-82
2023/10/29 10:24:39;;;;;;;;;;;;;;;12.36;100.00;98784.69;4953876;28;19934;-87
2023/10/29 10:27:09;;;;;;;;;;;;;;;12.49;100.00;98780.88;4968053;28;19929;-82
2023/10/29 10:29:43;;;;;;;;;;;;;;;12.50;100.00;98771.56;4968614;28;19930;-86
2023/10/29 10:32:22;;;;;;;;;;;;;;;12.52;100.00;98771.22;4975898;28;19929;-88
2023/10/29 10:34:59;;;;;;;;;;;;;;;12.42;100.00;98789.59;4974581;28;19953;-85
2023/10/29 10:37:27;;;;;;;;;;;;;;;12.47;100.00;98790.53;4975521;28;19929;-85
2023/10/29 10:39:55;;;;;;;;;;;;;;;12.49;100.00;98789.06;4971453;28;19937;-85
2023/10/29 10:42:23;;;;;;;;;;;;;;;12.53;100.00;98781.78;4971519;28;19922;-86
2023/10/29 10:44:54;;;;;;;;;;;;;;;12.55;100.00;98786.91;4974070;28;19933;-86
2023/10/29 10:47:30;;;;;;;;;;;;;;;12.47;100.00;98798.69;4947734;28;19929;-84
2023/10/29 10:49:58;;;;;;;;;;;;;;;12.53;100.00;98805.56;4966232;28;19940;-85
2023/10/29 10:52:28;;;;;;;;;;;;;;;12.71;100.00;98814.31;4964788;28;19930;-87
2023/10/29 10:55:03;;;;;;;;;;;;;;;12.67;100.00;98822.38;4951584;28;19929;-85
2023/10/29 10:57:37;;;;;;;;;;;;;;;12.74;100.00;98816.38;4972045;28;19941;-84
2023/10/29 11:00:12;;;;;;;;;;;;;;;12.85;100.00;98824.91;4972261;28;19936;-85
2023/10/29 11:02:46;;;;;;;;;;;;;;;13.08;100.00;98815.13;4971338;28;19952;-85
2023/10/29 11:05:15;;;;;;;;;;;;;;;13.19;100.00;98814.69;4969928;28;19930;-83
2023/10/29 11:07:44;;;;;;;;;;;;;;;13.32;100.00;98829.09;4970597;28;19922;-84
2023/10/29 11:10:13;;;;;;;;;;;;;;;13.40;100.00;98825.47;4956966;28;19929;-88
2023/10/29 11:12:46;;;;;;;;;;;;;;;13.36;100.00;98808.97;4961194;28;19929;-85
2023/10/29 11:15:16;;;;;;;;;;;;;;;13.43;100.00;98808.38;4973113;28;19930;-84
2023/10/29 11:18:07;;;;;;;;;;;;;;;13.34;100.00;98810.41;4968704;28;20306;-88
2023/10/29 11:20:54;;;;;;;;;;;;;;;13.19;100.00;98806.47;4961189;28;19929;-88
2023/10/29 11:23:26;;;;;;;;;;;;;;;13.33;100.00;98817.03;4970637;28;19930;-86
2023/10/29 11:26:17;;;;;;;;;;;;;;;13.46;100.00;98812.38;4956106;28;19930;-85
2023/10/29 11:28:45;;;;;;;;;;;;;;;13.46;100.00;98806.91;4957039;28;19930;-82
2023/10/29 11:31:16;;;;;;;;;;;;;;;13.47;100.00;98787.44;4972699;28;19926;-85
2023/10/29 11:33:45;;;;;;;;;;;;;;;13.32;100.00;98785.41;4970893;28;20405;-84
2023/10/29 11:36:34;;;;;;;;;;;;;;;13.23;100.00;98804.63;4955600;28;20286;-82
2023/10/29 11:39:25;;;;;;;;;;;;;;;13.14;100.00;98801.25;4970175;28;19930;-83
2023/10/29 11:41:55;;;;;;;;;;;;;;;13.21;100.00;98799.50;4970998;28;19929;-85
2023/10/29 11:44:29;;;;;;;;;;;;;;;13.36;100.00;98819.13;4973080;28;20330;-85
2023/10/29 11:47:05;;;;;;;;;;;;;;;13.35;100.00;98804.63;4933740;28;19929;-84
2023/10/29 11:49:56;;;;;;;;;;;;;;;13.47;100.00;98820.22;4972025;28;19937;-87
2023/10/29 11:52:40;;;;;;;;;;;;;;;13.60;100.00;98818.25;4982083;28;20668;-85
2023/10/29 11:55:09;;;;;;;;;;;;;;;13.70;100.00;98812.31;4970202;28;20330;-83
2023/10/29 11:57:39;;;;;;;;;;;;;;;13.73;100.00;98827.22;4969905;28;19932;-88
2023/10/29 12:00:13;;;;;;;;;;;;;;;13.63;100.00;98844.91;4954080;28;19936;-85
2023/10/29 12:02:45;;;;;;;;;;;;;;;13.61;100.00;98828.84;4958967;28;19941;-83
2023/10/29 12:05:18;;;;;;;;;;;;;;;13.70;100.00;98831.44;4953929;28;19940;-87
2023/10/29 12:07:58;;;;;;;;;;;;;;;13.58;100.00;98834.22;4957851;28;20866;-84
2023/10/29 12:10:31;;;;;;;;;;;;;;;13.63;100.00;98838.63;4970765;28;19930;-87
2023/10/29 12:13:04;;;;;;;;;;;;;;;13.65;100.00;98831.69;4974780;28;19966;-89
2023/10/29 12:15:37;;;;;;;;;;;;;;;13.79;100.00;98834.03;4976188;28;19933;-87
2023/10/29 12:18:06;;;;;;;;;;;;;;;13.77;100.00;98839.84;4978953;28;19940;-86
2023/10/29 12:20:34;;;;;;;;;;;;;;;13.75;100.00;98835.88;4972518;28;19940;-86
2023/10/29 12:23:07;;;;;;;;;;;;;;;13.64;100.00;98838.28;4980002;28;19929;-82
2023/10/29 12:25:35;;;;;;;;;;;;;;;13.59;100.00;98849.47;4999346;28;19937;-82
2023/10/29 12:28:09;;;;;;;;;;;;;;;13.58;100.00;98845.16;4991693;28;19995;-80
2023/10/29 12:30:37;;;;;;;;;;;;;;;13.56;100.00;98842.75;4994572;28;19921;-84
2023/10/29 12:33:20;;;;;;;;;;;;;;;13.46;100.00;98832.28;4978309;28;19921;-83
2023/10/29 12:35:48;;;;;;;;;;;;;;;13.54;100.00;98839.56;4991844;28;20267;-83
2023/10/29 12:38:16;;;;;;;;;;;;;;;13.37;100.00;98842.56;4976270;28;19929;-81
2023/10/29 12:41:02;;;;;;;;;;;;;;;13.48;100.00;98848.34;4994649;28;19933;-84
2023/10/29 12:43:36;;;;;;;;;;;;;;;13.36;100.00;98846.44;4988206;28;19929;-83
2023/10/29 12:46:06;;;;;;;;;;;;;;;13.31;100.00;98861.06;4990786;28;19944;-82
2023/10/29 12:48:59;;;;;;;;;;;;;;;13.31;100.00;98866.53;4994096;28;20286;-82
2023/10/29 12:51:32;;;;;;;;;;;;;;;13.29;100.00;98870.78;4996139;28;19933;-82
2023/10/29 12:54:09;;;;;;;;;;;;;;;13.38;100.00;98866.00;4988580;28;19933;-84
2023/10/29 12:56:49;;;;;;;;;;;;;;;13.39;100.00;98853.94;4990028;28;19922;-83
2023/10/29 12:59:17;;;;;;;;;;;;;;;13.41;100.00;98846.22;4991320;28;19928;-82
2023/10/29 13:01:52;;;;;;;;;;;;;;;13.41;100.00;98836.06;4990335;28;19928;-81